createdAt,value
2022-08-19T00:01:32.865Z,77.73
2022-08-19T00:04:09.910Z,78.03
2022-08-19T00:06:39.750Z,78.14
2022-08-19T00:09:09.962Z,78.24
2022-08-19T00:11:39.129Z,78.27
2022-08-19T00:14:09.641Z,78.12
2022-08-19T00:16:42.331Z,78.76
2022-08-19T00:19:11.591Z,78.67
2022-08-19T00:21:40.729Z,79.20
2022-08-19T00:24:10.238Z,79.24
2022-08-19T00:26:39.631Z,79.64
2022-08-19T00:29:09.183Z,79.31
2022-08-19T00:31:38.969Z,79.44
2022-08-19T00:34:07.021Z,79.24
2022-08-19T00:36:35.368Z,79.75
2022-08-19T00:39:03.626Z,79.88
2022-08-19T00:41:32.214Z,79.89
2022-08-19T00:44:02.832Z,80.35
2022-08-19T00:46:32.502Z,79.79
2022-08-19T00:49:03.354Z,79.74
2022-08-19T00:51:34.358Z,80.37
2022-08-19T00:54:03.878Z,80.61
2022-08-19T00:56:33.134Z,81.33
2022-08-19T00:59:03.210Z,81.58
2022-08-19T01:01:31.315Z,81.98
2022-08-19T01:03:59.503Z,81.94
2022-08-19T01:06:29.029Z,82.75
2022-08-19T01:08:57.555Z,83.03
2022-08-19T01:11:25.649Z,83.48
2022-08-19T01:13:55.136Z,83.47
2022-08-19T01:16:27.585Z,83.78
2022-08-19T01:18:55.931Z,84.53
2022-08-19T01:21:33.420Z,84.77
2022-08-19T01:24:03.522Z,85.20
2022-08-19T01:26:32.042Z,84.94
2022-08-19T01:29:02.253Z,85.07
2022-08-19T01:31:33.551Z,84.88
2022-08-19T01:34:04.053Z,84.03
2022-08-19T01:36:34.807Z,83.73
2022-08-19T01:39:07.489Z,84.38
2022-08-19T01:41:35.838Z,85.50
2022-08-19T01:44:18.159Z,85.51
2022-08-19T01:46:49.336Z,85.14
2022-08-19T01:49:19.809Z,84.75
2022-08-19T01:51:48.544Z,84.82
2022-08-19T01:54:27.007Z,85.02
2022-08-19T01:57:02.087Z,85.60
2022-08-19T01:59:30.834Z,86.25
2022-08-19T02:01:59.073Z,86.73
2022-08-19T02:04:27.307Z,86.65
2022-08-19T02:06:55.344Z,86.74
2022-08-19T02:09:24.750Z,87.39
2022-08-19T02:11:52.813Z,87.59
2022-08-19T02:14:20.940Z,87.98
2022-08-19T02:16:49.054Z,88.22
2022-08-19T02:19:17.145Z,88.26
2022-08-19T02:21:45.805Z,88.57
2022-08-19T02:24:14.861Z,88.81
2022-08-19T02:26:44.267Z,89.21
2022-08-19T02:29:12.540Z,89.11
2022-08-19T02:31:40.577Z,89.62
2022-08-19T02:34:08.627Z,89.58
2022-08-19T02:36:36.729Z,89.68
2022-08-19T02:39:10.057Z,89.89
2022-08-19T02:41:38.542Z,89.74
2022-08-19T02:44:30.284Z,90.23
2022-08-19T02:46:56.533Z,90.42
2022-08-19T02:49:24.688Z,90.81
2022-08-19T02:51:52.723Z,90.57
2022-08-19T02:54:20.939Z,90.82
2022-08-19T02:56:48.907Z,91.02
2022-08-19T02:59:18.287Z,91.21
2022-08-19T03:01:50.985Z,91.33
2022-08-19T03:04:20.858Z,91.69
2022-08-19T03:06:49.631Z,91.51
2022-08-19T03:09:18.893Z,91.44
2022-08-19T03:11:46.937Z,91.96
2022-08-19T03:14:19.135Z,91.91
2022-08-19T03:16:49.560Z,91.89
2022-08-19T03:19:20.265Z,91.84
2022-08-19T03:21:48.485Z,92.38
2022-08-19T03:24:18.431Z,92.70
2022-08-19T03:26:48.975Z,92.44
2022-08-19T03:29:30.885Z,91.80
2022-08-19T03:32:01.867Z,91.52
2022-08-19T03:34:32.684Z,91.70
2022-08-19T03:37:05.461Z,91.82
2022-08-19T03:39:33.525Z,92.19
2022-08-19T03:42:38.928Z,92.45
2022-08-19T03:44:53.725Z,93.20
2022-08-19T03:47:21.850Z,93.24
2022-08-19T03:49:49.954Z,93.32
2022-08-19T03:52:18.048Z,93.71
2022-08-19T03:54:46.126Z,93.42
2022-08-19T03:57:14.102Z,93.98
2022-08-19T03:59:42.202Z,94.48
2022-08-19T04:02:13.883Z,94.51
2022-08-19T04:04:44.645Z,94.51
2022-08-19T04:07:16.876Z,94.74
2022-08-19T04:09:45.289Z,95.04
2022-08-19T04:12:13.581Z,94.98
2022-08-19T04:14:42.383Z,95.16
2022-08-19T04:17:14.014Z,94.90
2022-08-19T04:19:44.026Z,94.77
2022-08-19T04:22:13.395Z,94.93
2022-08-19T04:24:41.530Z,94.99
2022-08-19T04:27:09.825Z,95.39
2022-08-19T04:29:40.556Z,94.88
2022-08-19T04:32:09.949Z,94.13
2022-08-19T04:35:01.118Z,93.90
2022-08-19T04:37:35.027Z,93.04
2022-08-19T04:40:23.253Z,92.74
2022-08-19T04:42:51.285Z,92.42
2022-08-19T04:45:19.434Z,91.92
2022-08-19T04:47:58.275Z,91.78
2022-08-19T04:50:28.817Z,92.40
2022-08-19T04:52:57.602Z,91.25
2022-08-19T04:55:27.619Z,89.35
2022-08-19T04:57:56.246Z,88.42
2022-08-19T05:00:24.285Z,87.77
2022-08-19T05:02:52.729Z,84.39
2022-08-19T05:05:20.905Z,83.29
2022-08-19T05:07:50.461Z,82.62
2022-08-19T05:10:18.597Z,81.69
2022-08-19T05:12:46.785Z,79.10
2022-08-19T05:15:15.122Z,77.37
2022-08-19T05:18:03.506Z,77.22
2022-08-19T05:20:48.699Z,74.00
2022-08-19T05:23:21.886Z,72.84
2022-08-19T05:25:51.256Z,74.67
2022-08-19T05:28:19.630Z,72.99
2022-08-19T05:30:49.166Z,71.74
2022-08-19T05:33:17.240Z,71.82
2022-08-19T05:35:45.426Z,70.05
2022-08-19T05:38:13.763Z,70.12
2022-08-19T05:40:43.868Z,68.73
2022-08-19T05:43:11.884Z,69.75
2022-08-19T05:45:43.657Z,70.01
2022-08-19T05:48:13.610Z,68.32
2022-08-19T05:50:43.591Z,68.07
2022-08-19T05:53:11.641Z,68.06
2022-08-19T05:55:40.872Z,69.62
2022-08-19T05:58:10.433Z,67.72
2022-08-19T06:00:39.238Z,67.14
2022-08-19T06:03:11.842Z,65.67
2022-08-19T06:05:46.259Z,65.60
2022-08-19T06:08:20.271Z,64.19
2022-08-19T06:10:48.361Z,64.11
2022-08-19T06:13:18.494Z,62.63
2022-08-19T06:15:47.472Z,62.99
2022-08-19T06:18:16.196Z,62.06
2022-08-19T06:20:56.358Z,61.34
2022-08-19T06:23:24.586Z,60.11
2022-08-19T06:25:52.631Z,58.87
2022-08-19T06:28:22.450Z,56.40
2022-08-19T06:30:51.146Z,59.29
2022-08-19T06:33:19.179Z,55.81
2022-08-19T06:35:47.209Z,55.59
2022-08-19T06:38:15.285Z,55.54
2022-08-19T06:43:12.284Z,52.50
2022-08-19T06:45:43.898Z,53.20
2022-08-19T06:48:11.929Z,52.87
2022-08-19T06:50:41.011Z,54.17
2022-08-19T06:53:09.526Z,50.35
2022-08-19T06:55:38.675Z,49.33
2022-08-19T06:58:07.228Z,50.12
2022-08-19T07:00:35.551Z,50.02
2022-08-19T07:03:08.471Z,48.00
2022-08-19T07:05:45.880Z,46.07
2022-08-19T07:08:14.908Z,47.02
2022-08-19T07:10:45.942Z,47.24
2022-08-19T07:13:14.165Z,46.31
2022-08-19T07:15:42.286Z,45.95
2022-08-19T07:18:15.397Z,44.55
2022-08-19T07:20:44.281Z,43.83
2022-08-19T07:23:16.029Z,45.81
2022-08-19T07:25:52.751Z,44.80
2022-08-19T07:28:23.997Z,47.13
2022-08-19T07:30:53.145Z,44.15
2022-08-19T07:33:23.287Z,44.32
2022-08-19T07:35:51.455Z,44.71
2022-08-19T07:38:19.773Z,45.31
2022-08-19T07:40:48.076Z,44.03
2022-08-19T07:43:18.626Z,44.29
2022-08-19T07:45:48.234Z,42.39
2022-08-19T07:48:16.694Z,43.88
2022-08-19T07:50:46.467Z,44.62
2022-08-19T07:53:14.696Z,43.07
2022-08-19T07:55:44.063Z,44.30
2022-08-19T07:58:14.307Z,44.57
2022-08-19T08:00:43.306Z,43.37
2022-08-19T08:03:12.245Z,42.40
2022-08-19T08:05:57.997Z,43.37
2022-08-19T08:08:48.343Z,42.17
2022-08-19T08:11:19.140Z,41.45
2022-08-19T08:14:01.432Z,41.49
2022-08-19T08:16:39.520Z,40.22
2022-08-19T08:19:20.266Z,40.99
2022-08-19T08:21:52.826Z,42.42
2022-08-19T08:24:22.406Z,41.81
2022-08-19T08:26:57.638Z,41.39
2022-08-19T08:29:26.930Z,40.60
2022-08-19T08:32:03.760Z,39.55
2022-08-19T08:34:42.395Z,39.99
2022-08-19T08:37:10.549Z,40.15
2022-08-19T08:39:40.121Z,40.44
2022-08-19T08:42:16.851Z,38.51
2022-08-19T08:47:33.622Z,38.61
2022-08-19T08:50:07.139Z,39.69
2022-08-19T08:52:39.438Z,39.63
2022-08-19T08:55:13.001Z,38.18
2022-08-19T08:57:46.626Z,38.48
2022-08-19T09:00:25.208Z,38.75
2022-08-19T09:02:53.340Z,39.57
2022-08-19T09:05:26.069Z,37.33
2022-08-19T09:08:02.174Z,37.45
2022-08-19T09:10:44.349Z,36.71
2022-08-19T09:13:24.339Z,36.82
2022-08-19T09:15:59.297Z,36.78
2022-08-19T09:18:29.684Z,35.51
2022-08-19T09:20:58.807Z,36.77
2022-08-19T09:23:27.239Z,36.60
2022-08-19T09:25:57.202Z,38.43
2022-08-19T09:28:27.462Z,35.34
2022-08-19T09:30:55.671Z,36.54
2022-08-19T09:33:24.297Z,35.67
2022-08-19T09:35:53.765Z,37.36
2022-08-19T09:38:22.402Z,37.03
2022-08-19T09:40:51.342Z,36.62
2022-08-19T09:43:33.169Z,35.63
2022-08-19T09:46:02.419Z,35.47
2022-08-19T09:48:30.783Z,36.19
2022-08-19T09:51:05.850Z,36.95
2022-08-19T09:53:34.289Z,37.16
2022-08-19T09:56:04.202Z,38.10
2022-08-19T09:58:34.707Z,38.86
2022-08-19T10:01:04.403Z,39.17
2022-08-19T10:03:34.673Z,37.11
2022-08-19T10:06:05.497Z,37.35
2022-08-19T10:08:50.402Z,38.13
2022-08-19T10:11:28.139Z,37.79
2022-08-19T10:14:08.051Z,36.95
2022-08-19T10:16:40.326Z,37.61
2022-08-19T10:19:08.524Z,36.46
2022-08-19T10:21:36.759Z,35.75
2022-08-19T10:24:07.288Z,37.52
2022-08-19T10:26:43.062Z,37.28
2022-08-19T10:29:12.990Z,38.38
2022-08-19T10:32:02.829Z,38.52
2022-08-19T10:34:32.661Z,39.28
2022-08-19T10:37:02.278Z,39.12
2022-08-19T10:39:32.595Z,38.56
2022-08-19T10:42:02.549Z,38.03
2022-08-19T10:44:32.738Z,38.26
2022-08-19T10:47:01.635Z,38.43
2022-08-19T10:49:30.058Z,36.85
2022-08-19T10:52:18.637Z,36.54
2022-08-19T10:55:08.573Z,35.98
2022-08-19T11:00:27.091Z,34.03
2022-08-19T11:02:55.292Z,35.62
2022-08-19T11:05:24.304Z,34.78
2022-08-19T11:07:53.510Z,34.50
2022-08-19T11:10:22.446Z,36.65
2022-08-19T11:12:54.105Z,35.35
2022-08-19T11:15:22.390Z,33.58
2022-08-19T11:17:55.353Z,36.10
2022-08-19T11:20:24.747Z,34.02
2022-08-19T11:22:55.317Z,36.05
2022-08-19T11:25:23.588Z,34.77
2022-08-19T11:27:53.513Z,35.08
2022-08-19T11:30:22.060Z,34.97
2022-08-19T11:32:51.582Z,34.28
2022-08-19T11:35:21.118Z,35.13
2022-08-19T11:37:49.289Z,33.54
2022-08-19T11:40:18.368Z,35.19
2022-08-19T11:42:58.215Z,35.00
2022-08-19T11:45:27.150Z,34.12
2022-08-19T11:47:57.125Z,36.26
2022-08-19T11:50:26.061Z,34.90
2022-08-19T11:52:56.734Z,35.43
2022-08-19T11:55:25.610Z,33.30
2022-08-19T11:57:53.853Z,33.31
2022-08-19T12:00:22.749Z,33.92
2022-08-19T12:02:51.200Z,33.46
2022-08-19T12:05:20.922Z,33.22
2022-08-19T12:07:49.158Z,33.63
2022-08-19T12:10:18.461Z,34.71
2022-08-19T12:12:55.810Z,33.07
2022-08-19T12:15:28.912Z,34.14
2022-08-19T12:18:06.770Z,33.38
2022-08-19T12:20:39.236Z,34.58
2022-08-19T12:23:10.002Z,33.83
2022-08-19T12:25:38.810Z,33.59
2022-08-19T12:28:07.462Z,35.06
2022-08-19T12:30:35.640Z,33.96
2022-08-19T12:33:03.805Z,32.85
2022-08-19T12:35:31.975Z,34.54
2022-08-19T12:38:03.934Z,35.25
2022-08-19T12:40:32.094Z,34.38
2022-08-19T12:43:00.331Z,33.01
2022-08-19T12:45:28.868Z,32.73
2022-08-19T12:47:57.287Z,31.85
2022-08-19T12:50:25.959Z,33.13
2022-08-19T12:52:54.437Z,33.86
2022-08-19T12:55:24.411Z,34.68
2022-08-19T12:57:52.739Z,33.53
2022-08-19T13:00:23.185Z,34.53
2022-08-19T13:02:53.136Z,32.93
2022-08-19T13:05:25.170Z,32.92
2022-08-19T13:07:57.001Z,33.52
2022-08-19T13:10:29.076Z,32.84
2022-08-19T13:12:57.983Z,33.39
2022-08-19T13:15:26.470Z,33.14
2022-08-19T13:17:57.149Z,33.11
2022-08-19T13:20:25.607Z,33.67
2022-08-19T13:22:54.467Z,32.66
2022-08-19T13:25:23.632Z,33.43
2022-08-19T13:27:53.598Z,34.02
2022-08-19T13:30:40.421Z,35.04
2022-08-19T13:33:16.575Z,34.44
2022-08-19T13:35:48.072Z,33.65
2022-08-19T13:38:18.094Z,33.39
2022-08-19T13:40:47.453Z,33.29
2022-08-19T13:43:23.165Z,34.86
2022-08-19T13:45:57.372Z,33.65
2022-08-19T13:48:27.653Z,33.56
2022-08-19T13:50:56.853Z,34.30
2022-08-19T13:53:25.765Z,34.27
2022-08-19T13:55:54.785Z,35.08
2022-08-19T13:58:25.105Z,35.71
2022-08-19T14:00:53.707Z,34.43
2022-08-19T14:03:22.586Z,33.63
2022-08-19T14:05:50.612Z,33.17
2022-08-19T14:08:19.717Z,33.74
2022-08-19T14:10:49.623Z,34.93
2022-08-19T14:13:19.823Z,34.49
2022-08-19T14:15:49.529Z,36.87
2022-08-19T14:18:18.994Z,37.41
2022-08-19T14:20:47.430Z,35.89
2022-08-19T14:23:15.795Z,35.97
2022-08-19T14:25:44.296Z,36.21
2022-08-19T14:28:12.600Z,36.69
2022-08-19T14:30:40.744Z,34.57
2022-08-19T14:33:10.620Z,35.43
2022-08-19T14:35:39.184Z,36.09
2022-08-19T14:38:09.254Z,36.97
2022-08-19T14:40:37.659Z,35.50
2022-08-19T14:43:07.282Z,35.45
2022-08-19T14:45:38.287Z,34.78
2022-08-19T14:48:07.190Z,34.93
2022-08-19T14:50:38.703Z,34.74
2022-08-19T14:53:12.645Z,35.98
2022-08-19T14:55:44.627Z,36.87
2022-08-19T14:58:28.805Z,37.33
2022-08-19T15:00:59.965Z,37.59
2022-08-19T15:03:28.607Z,36.90
2022-08-19T15:05:59.034Z,37.07
2022-08-19T15:08:27.443Z,37.69
2022-08-19T15:10:55.626Z,37.87
2022-08-19T15:13:25.734Z,37.48
2022-08-19T15:15:53.839Z,37.91
2022-08-19T15:18:22.852Z,38.29
2022-08-19T15:20:52.070Z,38.50
2022-08-19T15:23:22.805Z,39.73
2022-08-19T15:25:54.465Z,38.80
2022-08-19T15:28:22.820Z,38.18
2022-08-19T15:30:52.070Z,37.97
2022-08-19T15:33:21.453Z,38.54
2022-08-19T15:35:51.818Z,38.67
2022-08-19T15:38:23.888Z,38.15
2022-08-19T15:40:52.348Z,37.98
2022-08-19T15:43:22.557Z,38.83
2022-08-19T15:45:50.763Z,39.10
2022-08-19T15:48:19.010Z,39.69
2022-08-19T15:50:47.517Z,38.91
2022-08-19T15:53:15.620Z,38.95
2022-08-19T15:55:48.684Z,38.72
2022-08-19T15:58:34.944Z,39.47
2022-08-19T16:01:24.093Z,40.47
2022-08-19T16:04:14.679Z,40.63
2022-08-19T16:06:46.632Z,40.34
2022-08-19T16:09:16.173Z,41.44
2022-08-19T16:11:56.563Z,41.18
2022-08-19T16:14:26.461Z,41.76
2022-08-19T16:16:57.015Z,41.66
2022-08-19T16:19:26.065Z,43.24
2022-08-19T16:21:56.479Z,42.99
2022-08-19T16:24:27.749Z,43.01
2022-08-19T16:26:58.549Z,43.89
2022-08-19T16:29:33.808Z,46.83
2022-08-19T16:32:04.132Z,46.11
2022-08-19T16:34:33.627Z,45.69
2022-08-19T16:37:02.223Z,47.49
2022-08-19T16:39:30.454Z,47.65
2022-08-19T16:42:01.543Z,48.99
2022-08-19T16:44:30.822Z,49.56
2022-08-19T16:46:59.887Z,50.46
2022-08-19T16:49:52.907Z,49.84
2022-08-19T16:52:17.007Z,51.33
2022-08-19T16:54:45.451Z,52.85
2022-08-19T16:57:15.220Z,53.86
2022-08-19T16:59:49.243Z,54.92
2022-08-19T17:02:18.360Z,55.66
2022-08-19T17:04:57.113Z,55.59
2022-08-19T17:07:26.678Z,56.78
2022-08-19T17:09:55.258Z,57.84
2022-08-19T17:12:31.897Z,57.56
2022-08-19T17:15:01.366Z,58.17
2022-08-19T17:17:32.293Z,58.52
2022-08-19T17:20:01.377Z,59.31
2022-08-19T17:22:29.934Z,60.04
2022-08-19T17:24:58.874Z,60.18
2022-08-19T17:27:32.383Z,59.50
2022-08-19T17:30:02.737Z,59.05
2022-08-19T17:32:33.402Z,58.80
2022-08-19T17:35:01.421Z,56.23
2022-08-19T17:37:29.779Z,57.11
2022-08-19T17:39:57.871Z,56.14
2022-08-19T17:42:26.525Z,56.46
2022-08-19T17:44:59.661Z,56.52
2022-08-19T17:47:28.554Z,56.38
2022-08-19T17:49:56.855Z,56.01
2022-08-19T17:52:25.173Z,55.70
2022-08-19T17:54:53.400Z,55.49
2022-08-19T17:57:21.958Z,55.81
2022-08-19T17:59:50.516Z,56.02
2022-08-19T18:02:21.440Z,56.12
2022-08-19T18:04:50.139Z,57.05
2022-08-19T18:07:19.609Z,57.08
2022-08-19T18:09:51.659Z,57.30
2022-08-19T18:12:23.597Z,57.05
2022-08-19T18:14:52.094Z,56.33
2022-08-19T18:17:23.427Z,56.41
2022-08-19T18:19:51.639Z,57.34
2022-08-19T18:22:26.812Z,58.26
2022-08-19T18:24:55.805Z,58.25
2022-08-19T18:27:23.886Z,57.78
2022-08-19T18:29:51.969Z,58.52
2022-08-19T18:32:23.892Z,58.33
2022-08-19T18:34:52.635Z,58.30
2022-08-19T18:37:21.553Z,58.90
2022-08-19T18:40:07.110Z,59.10
2022-08-19T18:42:52.330Z,59.49
2022-08-19T18:45:37.862Z,59.79
2022-08-19T18:48:27.716Z,60.00
2022-08-19T18:50:58.674Z,60.14
2022-08-19T18:53:29.162Z,60.22
2022-08-19T18:55:57.804Z,59.46
2022-08-19T18:58:34.123Z,60.44
2022-08-19T19:01:10.846Z,60.47
2022-08-19T19:03:45.369Z,61.58
2022-08-19T19:06:15.084Z,61.24
2022-08-19T19:08:43.457Z,62.39
2022-08-19T19:11:11.513Z,62.33
2022-08-19T19:13:41.115Z,62.42
2022-08-19T19:16:11.670Z,62.65
2022-08-19T19:18:41.085Z,62.28
2022-08-19T19:21:10.271Z,62.43
2022-08-19T19:23:40.801Z,62.44
2022-08-19T19:26:10.679Z,62.09
2022-08-19T19:28:46.250Z,63.00
2022-08-19T19:31:16.205Z,62.92
2022-08-19T19:33:46.845Z,63.14
2022-08-19T19:36:15.519Z,63.76
2022-08-19T19:38:48.588Z,63.10
2022-08-19T19:41:19.032Z,62.99
2022-08-19T19:43:47.022Z,63.53
2022-08-19T19:46:15.653Z,63.64
2022-08-19T19:48:45.162Z,63.65
2022-08-19T19:51:14.243Z,63.16
2022-08-19T19:53:42.920Z,63.56
2022-08-19T19:56:11.092Z,63.67
2022-08-19T19:58:39.782Z,64.39
2022-08-19T20:01:12.523Z,64.06
2022-08-19T20:03:47.184Z,64.12
2022-08-19T20:06:17.517Z,63.91
2022-08-19T20:09:04.524Z,64.42
2022-08-19T20:11:35.547Z,63.93
2022-08-19T20:14:06.945Z,64.27
2022-08-19T20:16:35.047Z,63.98
2022-08-19T20:19:04.418Z,64.76
2022-08-19T20:21:33.313Z,64.81
2022-08-19T20:24:09.605Z,64.82
2022-08-19T20:26:38.869Z,64.66
2022-08-19T20:29:13.889Z,63.71
2022-08-19T20:31:58.031Z,64.62
2022-08-19T20:34:29.010Z,64.61
2022-08-19T20:36:57.191Z,64.50
2022-08-19T20:39:25.279Z,63.68
2022-08-19T20:41:53.735Z,63.91
2022-08-19T20:44:21.779Z,64.19
2022-08-19T20:46:55.601Z,63.39
2022-08-19T20:49:27.207Z,62.02
2022-08-19T20:51:58.581Z,63.05
2022-08-19T20:54:27.225Z,62.45
2022-08-19T20:56:55.330Z,62.37
2022-08-19T20:59:24.486Z,62.54
2022-08-19T21:01:52.863Z,62.57
2022-08-19T21:04:22.483Z,63.38
2022-08-19T21:06:51.096Z,63.02
2022-08-19T21:09:20.471Z,62.66
2022-08-19T21:11:49.223Z,63.56
2022-08-19T21:14:19.123Z,62.96
2022-08-19T21:16:47.345Z,62.90
2022-08-19T21:19:15.389Z,62.80
2022-08-19T21:21:43.472Z,62.68
2022-08-19T21:24:11.703Z,62.30
2022-08-19T21:26:41.790Z,62.40
2022-08-19T21:29:09.846Z,62.38
2022-08-19T21:31:37.829Z,61.88
2022-08-19T21:34:06.081Z,62.11
2022-08-19T21:36:34.638Z,61.69
2022-08-19T21:39:02.758Z,61.74
2022-08-19T21:41:30.820Z,61.26
2022-08-19T21:44:00.286Z,61.01
2022-08-19T21:46:28.525Z,61.25
2022-08-19T21:48:56.553Z,60.81
2022-08-19T21:51:24.579Z,61.22
2022-08-19T21:53:53.583Z,61.31
2022-08-19T21:56:21.880Z,61.36
2022-08-19T21:58:50.055Z,61.20
2022-08-19T22:01:19.496Z,61.63
2022-08-19T22:03:47.630Z,62.75
2022-08-19T22:06:16.456Z,63.04
2022-08-19T22:08:45.006Z,63.16
2022-08-19T22:11:13.297Z,63.18
2022-08-19T22:13:41.757Z,63.42
2022-08-19T22:16:11.169Z,63.39
2022-08-19T22:18:40.920Z,63.72
2022-08-19T22:21:11.899Z,64.27
2022-08-19T22:23:41.580Z,64.41
2022-08-19T22:26:10.354Z,64.45
2022-08-19T22:28:38.826Z,64.95
2022-08-19T22:31:08.038Z,65.00
2022-08-19T22:33:37.028Z,65.15
2022-08-19T22:36:08.656Z,65.42
2022-08-19T22:38:37.452Z,65.00
2022-08-19T22:41:07.607Z,65.09
2022-08-19T22:43:37.749Z,65.21
2022-08-19T22:46:06.555Z,64.67
2022-08-19T22:48:45.802Z,64.50
2022-08-19T22:51:33.559Z,64.13
2022-08-19T22:54:02.550Z,64.35
2022-08-19T22:56:31.317Z,65.07
2022-08-19T22:58:59.919Z,65.33
2022-08-19T23:01:30.566Z,65.10
2022-08-19T23:04:00.332Z,65.81
2022-08-19T23:06:35.667Z,66.08
2022-08-19T23:09:06.822Z,65.98
2022-08-19T23:11:41.413Z,65.94
2022-08-19T23:14:12.727Z,66.07
2022-08-19T23:16:42.008Z,66.76
2022-08-19T23:19:11.176Z,66.93
2022-08-19T23:21:41.443Z,66.83
2022-08-19T23:24:10.679Z,66.66
2022-08-19T23:26:39.038Z,66.99
2022-08-19T23:29:24.639Z,67.20
2022-08-19T23:31:52.734Z,67.41
2022-08-19T23:34:21.590Z,67.48
2022-08-19T23:36:50.995Z,67.77
2022-08-19T23:39:19.489Z,68.32
2022-08-19T23:41:47.677Z,68.76
2022-08-19T23:44:15.652Z,69.21
2022-08-19T23:46:54.493Z,69.91
2022-08-19T23:49:22.832Z,70.62
2022-08-19T23:51:52.282Z,70.80
2022-08-19T23:54:20.326Z,71.01
2022-08-19T23:56:48.333Z,71.37
2022-08-19T23:59:16.363Z,70.74
